Time;durP1;ratioP1;P1;durP2;ratioP2;P2;SDS_P1;SDS_P2;PMS_P1;PMS_P2;Temp;Humidity;BMP_temperature;BMP_pressure;BME280_temperature;BME280_humidity;BME280_pressure;Samples;Min_cycle;Max_cycle;Signal;HPM_P1;HPM_P2
2021/12/26 00:00:18;;;;;;;44.75;13.93;;;5.30;99.90;;;;;;4985886;28;20100;-72
2021/12/26 00:02:45;;;;;;;49.85;15.77;;;5.30;99.90;;;;;;4991063;28;20488;-71
2021/12/26 00:05:11;;;;;;;40.17;14.43;;;5.40;99.90;;;;;;4992195;28;20026;-72
2021/12/26 00:07:37;;;;;;;52.72;15.10;;;5.40;99.90;;;;;;4987856;28;20035;-73
2021/12/26 00:10:08;;;;;;;44.20;18.52;;;5.40;99.90;;;;;;4968558;28;20525;-72
2021/12/26 00:12:35;;;;;;;58.53;18.40;;;5.30;99.90;;;;;;4986365;28;20030;-71
2021/12/26 00:15:07;;;;;;;65.20;17.35;;;5.30;99.90;;;;;;4986670;28;20113;-72
2021/12/26 00:17:33;;;;;;;41.83;17.35;;;5.30;99.90;;;;;;4986074;28;20030;-71
2021/12/26 00:19:59;;;;;;;48.13;16.00;;;5.30;99.90;;;;;;4981763;28;20026;-72
2021/12/26 00:22:25;;;;;;;44.17;16.23;;;5.30;99.90;;;;;;4988587;28;20098;-72
2021/12/26 00:24:51;;;;;;;30.83;14.20;;;5.30;99.90;;;;;;4978176;28;20475;-72
2021/12/26 00:27:19;;;;;;;65.53;15.93;;;5.20;99.90;;;;;;4977754;28;20038;-70
2021/12/26 00:29:46;;;;;;;34.65;13.52;;;5.20;99.90;;;;;;4993497;28;20034;-71
2021/12/26 00:32:12;;;;;;;42.63;15.63;;;5.10;99.90;;;;;;4984527;28;20027;-72
2021/12/26 00:34:41;;;;;;;45.92;16.90;;;5.00;99.90;;;;;;4990683;28;20102;-71
2021/12/26 00:37:07;;;;;;;37.35;14.88;;;5.00;99.90;;;;;;4994328;28;20435;-71
2021/12/26 00:39:34;;;;;;;49.38;16.75;;;5.10;99.90;;;;;;4990959;28;20064;-69
2021/12/26 00:42:00;;;;;;;38.45;15.95;;;5.00;99.90;;;;;;4993525;28;20034;-71
2021/12/26 00:44:26;;;;;;;29.00;12.93;;;5.10;99.90;;;;;;4988786;28;20435;-71
2021/12/26 00:46:53;;;;;;;32.85;13.75;;;5.00;99.90;;;;;;4986515;28;20035;-71
2021/12/26 00:49:21;;;;;;;30.60;13.20;;;5.00;99.90;;;;;;4989746;28;20026;-71
2021/12/26 00:51:47;;;;;;;37.30;13.75;;;5.00;99.90;;;;;;4987260;28;20135;-71
2021/12/26 00:54:13;;;;;;;55.88;19.48;;;5.00;99.90;;;;;;4990327;28;20046;-70
2021/12/26 00:56:38;;;;;;;44.88;14.88;;;5.00;99.90;;;;;;4988882;28;20034;-71
2021/12/26 00:59:04;;;;;;;51.20;16.70;;;5.00;99.90;;;;;;4989830;28;20034;-71
2021/12/26 01:01:30;;;;;;;43.72;15.55;;;5.00;99.90;;;;;;4991634;28;20478;-71
2021/12/26 01:03:56;;;;;;;52.58;15.57;;;5.00;99.90;;;;;;4992949;28;20029;-71
2021/12/26 01:06:23;;;;;;;65.60;22.23;;;5.00;99.90;;;;;;4973936;28;20097;-71
2021/12/26 01:08:51;;;;;;;38.53;15.40;;;5.00;99.90;;;;;;4973666;28;20048;-70
2021/12/26 01:11:42;;;;;;;70.38;25.17;;;5.00;99.90;;;;;;4993786;28;20026;-71
2021/12/26 01:14:13;;;;;;;71.03;21.35;;;5.10;99.90;;;;;;4989911;28;20049;-71
2021/12/26 01:16:40;;;;;;;71.28;23.23;;;5.00;99.90;;;;;;4997029;28;20073;-71
2021/12/26 01:19:12;;;;;;;73.93;21.90;;;5.00;99.90;;;;;;4991643;28;20062;-70
2021/12/26 01:21:38;;;;;;;46.33;16.55;;;5.10;99.90;;;;;;4987742;28;20022;-71
2021/12/26 01:24:08;;;;;;;75.10;23.08;;;5.00;99.90;;;;;;4989587;28;20056;-71
2021/12/26 01:26:34;;;;;;;74.47;24.05;;;5.00;99.90;;;;;;4992976;28;20048;-71
2021/12/26 01:29:01;;;;;;;61.05;20.17;;;5.00;99.90;;;;;;4995879;28;20384;-71
2021/12/26 01:31:27;;;;;;;94.53;26.90;;;5.00;99.90;;;;;;4976645;28;20029;-71
2021/12/26 01:33:59;;;;;;;80.50;22.60;;;5.00;99.90;;;;;;4992761;28;21425;-71
2021/12/26 01:36:26;;;;;;;98.10;27.48;;;5.00;99.90;;;;;;5004829;22;20042;-66
2021/12/26 01:38:51;;;;;;;83.65;23.83;;;5.00;99.90;;;;;;5007881;28;20550;-65
2021/12/26 01:41:18;;;;;;;42.28;14.52;;;5.00;99.90;;;;;;5000826;28;20104;-67
2021/12/26 01:43:48;;;;;;;30.25;13.68;;;5.10;99.90;;;;;;5009550;28;20486;-66
2021/12/26 01:46:15;;;;;;;30.75;13.07;;;5.10;99.90;;;;;;5013555;28;20116;-66
2021/12/26 01:48:42;;;;;;;26.25;12.43;;;5.10;99.90;;;;;;5009521;28;20054;-66
2021/12/26 01:51:08;;;;;;;24.00;10.25;;;5.10;99.90;;;;;;5016973;28;20041;-66
2021/12/26 01:53:38;;;;;;;24.05;8.90;;;5.00;99.90;;;;;;5011546;28;20417;-66
2021/12/26 01:56:13;;;;;;;21.83;10.02;;;5.00;99.90;;;;;;5005239;28;20037;-66
2021/12/26 01:58:39;;;;;;;20.95;10.02;;;5.00;99.90;;;;;;5004455;28;20081;-66
2021/12/26 02:01:11;;;;;;;25.25;10.57;;;5.00;99.90;;;;;;5007231;28;20443;-66
2021/12/26 02:03:38;;;;;;;19.52;9.00;;;5.00;99.90;;;;;;4995171;28;20030;-66
2021/12/26 02:06:09;;;;;;;16.23;8.15;;;4.90;99.90;;;;;;4989179;28;20398;-66
2021/12/26 02:08:36;;;;;;;29.75;11.35;;;4.90;99.90;;;;;;4992174;28;20061;-66
2021/12/26 02:11:05;;;;;;;17.38;8.48;;;4.90;99.90;;;;;;5000976;28;20438;-66
2021/12/26 02:13:34;;;;;;;22.60;10.30;;;4.90;99.90;;;;;;4987358;28;20108;-66
2021/12/26 02:16:00;;;;;;;23.23;10.75;;;4.90;99.90;;;;;;5007221;28;20032;-66
2021/12/26 02:18:26;;;;;;;28.95;10.30;;;4.90;99.90;;;;;;5009553;28;20034;-66
2021/12/26 02:29:21;;;;;;;28.23;11.45;;;4.80;99.90;;;;;;5000328;28;20485;-66
2021/12/26 02:31:47;;;;;;;31.40;12.63;;;4.80;99.90;;;;;;5001275;28;20177;-66
2021/12/26 02:34:13;;;;;;;28.38;10.88;;;4.70;99.90;;;;;;4995841;28;20091;-66
2021/12/26 02:36:39;;;;;;;33.70;12.50;;;4.80;99.90;;;;;;5009835;28;20474;-66
2021/12/26 02:39:06;;;;;;;37.22;11.18;;;4.80;99.90;;;;;;5007945;28;20026;-66
2021/12/26 02:41:31;;;;;;;28.33;10.57;;;4.70;99.90;;;;;;5004206;28;20026;-66
2021/12/26 02:43:58;;;;;;;32.67;10.88;;;4.70;99.90;;;;;;5010320;28;20022;-66
2021/12/26 02:46:26;;;;;;;33.70;11.63;;;4.70;99.90;;;;;;5011807;28;20026;-66
2021/12/26 02:48:53;;;;;;;27.75;12.60;;;4.70;99.90;;;;;;5009486;28;20033;-66
2021/12/26 02:51:18;;;;;;;26.90;12.23;;;4.70;99.90;;;;;;5011480;28;20026;-67
2021/12/26 02:53:49;;;;;;;30.95;12.15;;;4.70;99.90;;;;;;5009052;28;20510;-66
2021/12/26 02:56:15;;;;;;;28.17;11.57;;;4.80;99.90;;;;;;4992260;28;20066;-66
2021/12/26 02:58:41;;;;;;;26.52;12.98;;;4.80;99.90;;;;;;5011749;28;20045;-66
2021/12/26 03:01:17;;;;;;;42.88;13.15;;;4.80;99.90;;;;;;5011697;28;20028;-66
2021/12/26 03:03:43;;;;;;;33.05;11.98;;;4.80;99.90;;;;;;5014209;28;20626;-67
2021/12/26 03:06:40;;;;;;;32.80;11.45;;;4.80;99.90;;;;;;5014558;28;20151;-66
2021/12/26 03:08:57;;;;;;;25.90;12.27;;;4.80;99.90;;;;;;5014660;28;20406;-67
2021/12/26 03:11:23;;;;;;;26.63;11.75;;;4.80;99.90;;;;;;4997756;28;20021;-66
2021/12/26 03:13:52;;;;;;;32.15;12.52;;;4.80;99.90;;;;;;5016336;28;20037;-67
2021/12/26 03:16:18;;;;;;;37.03;12.32;;;4.80;99.90;;;;;;5009805;28;20033;-66
2021/12/26 03:18:47;;;;;;;41.08;14.13;;;4.80;99.90;;;;;;5018144;28;20026;-66
2021/12/26 03:21:13;;;;;;;32.42;13.32;;;4.80;99.90;;;;;;5005989;28;20030;-67
2021/12/26 03:23:38;;;;;;;38.65;15.48;;;4.80;99.90;;;;;;5015922;28;20075;-66
2021/12/26 03:26:06;;;;;;;31.25;12.68;;;4.80;99.90;;;;;;5005873;28;20022;-67
2021/12/26 03:28:33;;;;;;;33.83;13.55;;;4.80;99.90;;;;;;5013371;28;20033;-67
2021/12/26 03:31:00;;;;;;;34.80;14.63;;;4.80;99.90;;;;;;5016510;28;20519;-67
2021/12/26 03:33:29;;;;;;;27.60;13.50;;;4.80;99.90;;;;;;5004888;28;20025;-66
2021/12/26 03:35:55;;;;;;;39.17;13.77;;;4.80;99.90;;;;;;5014491;28;20030;-66
2021/12/26 03:38:22;;;;;;;27.23;12.10;;;4.80;99.90;;;;;;5008743;28;20405;-66
2021/12/26 03:40:49;;;;;;;26.27;12.65;;;4.80;99.90;;;;;;5014650;28;20115;-67
2021/12/26 03:43:15;;;;;;;29.05;13.57;;;4.80;99.90;;;;;;5019440;28;20022;-66
2021/12/26 03:45:42;;;;;;;27.58;13.32;;;4.80;99.90;;;;;;5018195;28;20036;-66
2021/12/26 03:48:08;;;;;;;29.95;12.52;;;4.90;99.90;;;;;;5016984;28;20051;-66
2021/12/26 03:50:39;;;;;;;23.73;11.80;;;4.90;99.90;;;;;;4997227;28;20034;-66
2021/12/26 03:53:04;;;;;;;22.50;11.68;;;4.80;99.90;;;;;;5012945;28;20028;-66
2021/12/26 03:55:30;;;;;;;22.52;11.82;;;4.80;99.90;;;;;;5012827;28;20025;-66
2021/12/26 03:57:59;;;;;;;19.63;10.90;;;4.80;99.90;;;;;;5008334;28;20460;-66
2021/12/26 04:00:26;;;;;;;24.50;11.27;;;4.80;99.90;;;;;;5007088;28;20025;-66
2021/12/26 04:02:52;;;;;;;23.13;11.25;;;4.80;99.90;;;;;;5005169;28;20108;-66
2021/12/26 04:05:21;;;;;;;21.23;10.70;;;4.80;99.90;;;;;;5008654;28;20085;-67
2021/12/26 04:07:47;;;;;;;18.00;9.90;;;4.90;99.90;;;;;;5009854;28;20065;-66
2021/12/26 04:10:15;;;;;;;22.60;10.10;;;4.90;99.90;;;;;;5002037;28;20107;-66
2021/12/26 04:12:46;;;;;;;24.05;10.88;;;5.00;99.90;;;;;;5005359;28;20054;-66
2021/12/26 04:15:14;;;;;;;17.73;10.15;;;5.00;99.90;;;;;;5005105;28;20030;-66
2021/12/26 04:17:41;;;;;;;20.60;10.77;;;5.10;99.90;;;;;;4993690;28;20061;-66
2021/12/26 04:20:07;;;;;;;22.48;11.25;;;5.10;99.90;;;;;;5009192;28;20026;-65
2021/12/26 04:22:33;;;;;;;21.42;10.63;;;5.20;99.90;;;;;;5018244;28;20477;-65
2021/12/26 04:24:59;;;;;;;19.23;11.27;;;5.20;99.90;;;;;;5011664;28;20033;-66
2021/12/26 04:27:25;;;;;;;19.83;11.05;;;5.30;99.90;;;;;;5012382;28;20022;-67
2021/12/26 04:29:52;;;;;;;19.02;10.20;;;5.30;99.90;;;;;;5009807;28;20498;-66
2021/12/26 04:32:17;;;;;;;18.20;9.43;;;5.40;99.90;;;;;;5010473;28;20025;-67
2021/12/26 04:34:43;;;;;;;18.05;9.75;;;5.40;99.90;;;;;;5005076;28;20093;-66
2021/12/26 04:37:09;;;;;;;15.02;9.07;;;5.40;99.90;;;;;;5014298;28;20036;-66
2021/12/26 04:39:37;;;;;;;15.73;8.75;;;5.40;99.90;;;;;;5008668;28;20422;-67
2021/12/26 04:42:05;;;;;;;16.92;9.10;;;5.30;99.90;;;;;;5010621;28;20034;-66
2021/12/26 04:44:31;;;;;;;15.60;9.55;;;5.30;99.90;;;;;;5008613;28;20564;-66
2021/12/26 04:46:56;;;;;;;19.05;9.98;;;5.30;99.90;;;;;;5015562;28;20108;-67
2021/12/26 04:49:22;;;;;;;17.00;9.57;;;5.30;99.90;;;;;;5009294;28;20034;-66
2021/12/26 04:51:48;;;;;;;19.55;11.02;;;5.20;99.90;;;;;;5006761;28;20065;-66
2021/12/26 04:54:14;;;;;;;18.30;9.93;;;5.20;99.90;;;;;;5013505;28;20053;-65
2021/12/26 04:56:40;;;;;;;18.45;10.20;;;5.20;99.90;;;;;;5007554;28;20041;-66
2021/12/26 04:59:06;;;;;;;17.13;9.57;;;5.20;99.90;;;;;;5013419;28;20026;-66
2021/12/26 05:01:33;;;;;;;17.55;9.73;;;5.20;99.90;;;;;;5025761;28;20030;-66
2021/12/26 05:04:03;;;;;;;15.93;9.55;;;5.20;99.90;;;;;;4987659;28;20033;-67
2021/12/26 05:06:29;;;;;;;18.15;10.05;;;5.20;99.90;;;;;;5013951;28;20026;-66
2021/12/26 05:08:57;;;;;;;17.73;10.05;;;5.20;99.90;;;;;;5010564;28;20885;-66
2021/12/26 05:11:23;;;;;;;17.48;9.90;;;5.20;99.90;;;;;;5008116;28;20030;-67
2021/12/26 05:13:49;;;;;;;16.65;9.85;;;5.10;99.90;;;;;;5023058;28;20026;-66
2021/12/26 05:16:17;;;;;;;19.52;10.30;;;5.20;99.90;;;;;;5010858;28;20493;-66
2021/12/26 05:18:43;;;;;;;22.02;11.02;;;5.20;99.90;;;;;;5009372;28;20027;-67
2021/12/26 05:21:09;;;;;;;19.65;10.52;;;5.30;99.90;;;;;;5016402;28;20091;-67
2021/12/26 05:23:34;;;;;;;19.08;10.65;;;5.30;99.90;;;;;;5004968;28;20033;-68
2021/12/26 05:26:00;;;;;;;19.60;11.20;;;5.40;99.90;;;;;;5019839;28;20029;-68
2021/12/26 05:28:25;;;;;;;21.38;11.13;;;5.40;99.90;;;;;;5019848;28;20042;-68
2021/12/26 05:30:51;;;;;;;22.73;12.57;;;5.30;99.90;;;;;;5020920;28;20149;-67
2021/12/26 05:33:17;;;;;;;20.70;12.30;;;5.30;99.90;;;;;;5022731;28;20390;-68
2021/12/26 05:35:43;;;;;;;20.83;10.25;;;5.30;99.90;;;;;;5017918;28;20032;-67
2021/12/26 05:38:14;;;;;;;19.73;11.27;;;5.20;99.90;;;;;;5019582;28;20040;-68
2021/12/26 05:40:40;;;;;;;23.90;11.23;;;5.20;99.90;;;;;;5015640;28;20022;-68
2021/12/26 05:43:06;;;;;;;21.08;11.02;;;5.10;99.90;;;;;;5015423;28;20366;-66
2021/12/26 05:45:31;;;;;;;22.45;11.93;;;5.10;99.90;;;;;;4994502;28;20026;-67
2021/12/26 05:47:57;;;;;;;24.42;13.32;;;5.10;99.90;;;;;;5005997;28;20044;-67
2021/12/26 05:50:23;;;;;;;26.33;13.05;;;5.10;99.90;;;;;;5012863;28;20517;-67
2021/12/26 05:52:52;;;;;;;24.70;11.80;;;5.00;99.90;;;;;;5012850;28;20033;-68
2021/12/26 05:55:18;;;;;;;22.58;12.00;;;5.00;99.90;;;;;;5009580;28;20041;-67
2021/12/26 05:57:44;;;;;;;27.15;12.98;;;5.00;99.90;;;;;;5013733;28;20541;-68
2021/12/26 06:00:14;;;;;;;22.85;12.38;;;5.00;99.90;;;;;;5007620;28;20081;-67
2021/12/26 06:02:39;;;;;;;24.85;11.65;;;5.00;99.90;;;;;;4985664;28;20022;-68
2021/12/26 06:05:05;;;;;;;35.75;12.68;;;5.00;99.90;;;;;;5009370;28;20156;-68
2021/12/26 06:07:31;;;;;;;21.25;11.40;;;5.00;99.90;;;;;;5010828;28;20031;-67
2021/12/26 06:09:57;;;;;;;23.48;12.30;;;4.90;99.90;;;;;;5021617;28;20080;-68
2021/12/26 06:12:23;;;;;;;22.23;11.82;;;4.90;99.90;;;;;;5006575;28;20022;-67
2021/12/26 06:14:49;;;;;;;23.75;11.90;;;4.90;99.90;;;;;;4999253;28;20117;-67
2021/12/26 06:17:14;;;;;;;20.75;11.55;;;4.90;99.90;;;;;;4997255;28;20121;-68
2021/12/26 06:19:40;;;;;;;21.55;11.73;;;4.90;99.90;;;;;;5011464;28;20030;-68
2021/12/26 06:22:06;;;;;;;22.17;12.20;;;5.00;99.90;;;;;;4997344;28;20441;-67
2021/12/26 06:24:32;;;;;;;18.48;10.63;;;4.90;99.90;;;;;;4984545;28;20023;-68
2021/12/26 06:26:58;;;;;;;23.27;10.82;;;4.90;99.90;;;;;;5012795;28;20025;-65
2021/12/26 06:29:24;;;;;;;23.80;11.25;;;5.00;99.90;;;;;;5002934;28;20113;-65
2021/12/26 06:31:49;;;;;;;23.10;11.82;;;5.10;99.90;;;;;;4998434;28;20029;-68
2021/12/26 06:34:15;;;;;;;20.83;11.45;;;5.10;99.90;;;;;;5004264;28;20044;-68
2021/12/26 06:36:41;;;;;;;24.33;11.90;;;5.10;99.90;;;;;;5011140;28;20068;-68
2021/12/26 06:39:07;;;;;;;23.25;12.40;;;5.00;99.90;;;;;;4981608;28;20446;-68
2021/12/26 06:41:33;;;;;;;21.67;11.43;;;5.10;99.90;;;;;;5005268;28;20080;-69
2021/12/26 06:43:59;;;;;;;23.45;11.48;;;5.10;99.90;;;;;;5010417;28;20076;-68
2021/12/26 06:46:26;;;;;;;20.38;10.80;;;5.10;99.90;;;;;;5009143;28;20053;-68
2021/12/26 06:48:51;;;;;;;22.10;11.38;;;5.10;99.90;;;;;;4994362;28;20116;-68
2021/12/26 06:51:19;;;;;;;19.10;10.95;;;5.10;99.90;;;;;;5021741;28;20037;-68
2021/12/26 06:53:45;;;;;;;21.33;10.93;;;5.10;99.90;;;;;;4992837;28;20025;-68
2021/12/26 06:56:10;;;;;;;21.05;11.60;;;5.10;99.90;;;;;;5010802;28;20033;-67
2021/12/26 06:58:36;;;;;;;18.13;10.18;;;5.10;99.90;;;;;;5019281;28;20502;-67
2021/12/26 07:01:02;;;;;;;19.65;10.38;;;5.00;99.90;;;;;;5004476;28;20386;-68
2021/12/26 07:03:28;;;;;;;23.77;12.07;;;5.00;99.90;;;;;;4969966;28;20382;-68
2021/12/26 07:05:54;;;;;;;23.45;12.38;;;4.90;99.90;;;;;;5018787;28;20112;-67
2021/12/26 07:08:19;;;;;;;21.50;11.48;;;5.00;99.90;;;;;;5002073;28;20378;-67
2021/12/26 07:10:45;;;;;;;24.73;12.55;;;5.00;99.90;;;;;;5010655;28;20057;-66
2021/12/26 07:13:11;;;;;;;25.38;13.02;;;5.00;99.90;;;;;;5018261;28;20033;-67
2021/12/26 07:15:37;;;;;;;23.85;12.82;;;5.00;99.90;;;;;;4989766;28;20025;-68
2021/12/26 07:18:03;;;;;;;25.80;12.20;;;5.00;99.90;;;;;;4989589;28;20033;-69
2021/12/26 07:20:29;;;;;;;20.50;11.73;;;5.10;99.90;;;;;;5015856;28;20151;-67
2021/12/26 07:22:55;;;;;;;26.88;12.95;;;5.10;99.90;;;;;;5006883;28;20021;-67
2021/12/26 07:25:21;;;;;;;24.00;11.75;;;5.20;99.90;;;;;;5010531;28;20040;-67
2021/12/26 07:27:46;;;;;;;18.60;10.85;;;5.20;99.90;;;;;;5012175;28;20057;-67
2021/12/26 07:30:12;;;;;;;25.13;11.95;;;5.30;99.90;;;;;;5004815;28;20111;-66
2021/12/26 07:32:38;;;;;;;22.50;12.02;;;5.30;99.90;;;;;;5006094;28;20033;-67
2021/12/26 07:35:04;;;;;;;24.05;12.38;;;5.40;99.90;;;;;;5007210;28;20061;-68
2021/12/26 07:37:30;;;;;;;19.83;11.45;;;5.40;99.90;;;;;;5031325;23;20405;-72
2021/12/26 07:39:55;;;;;;;23.30;11.55;;;5.40;99.90;;;;;;4992093;28;20033;-71
2021/12/26 07:42:21;;;;;;;23.30;12.23;;;5.40;99.90;;;;;;5018166;28;20447;-71
2021/12/26 07:44:47;;;;;;;22.30;11.05;;;5.40;99.90;;;;;;5000307;28;20033;-71
2021/12/26 07:47:13;;;;;;;21.98;12.00;;;5.30;99.90;;;;;;5016137;28;20163;-71
2021/12/26 07:49:39;;;;;;;22.85;12.10;;;5.40;99.90;;;;;;5006189;28;20041;-72
2021/12/26 07:52:12;;;;;;;24.63;11.95;;;5.40;99.90;;;;;;5012591;28;20025;-72
2021/12/26 07:54:39;;;;;;;23.77;11.18;;;5.50;99.90;;;;;;5015027;28;20475;-71
2021/12/26 07:57:06;;;;;;;22.52;10.45;;;5.50;99.90;;;;;;4990729;28;20076;-71
2021/12/26 07:59:33;;;;;;;21.50;10.70;;;5.50;99.90;;;;;;5007738;28;20029;-71
2021/12/26 08:01:58;;;;;;;19.45;10.13;;;5.60;99.90;;;;;;5007901;28;20036;-71
2021/12/26 08:04:24;;;;;;;19.65;10.00;;;5.60;99.90;;;;;;5009653;28;20402;-71
2021/12/26 08:06:52;;;;;;;20.73;11.50;;;5.70;99.90;;;;;;5000003;28;20074;-71
2021/12/26 08:09:19;;;;;;;20.38;11.20;;;5.70;99.90;;;;;;5004146;28;20454;-71
2021/12/26 08:11:45;;;;;;;22.13;11.68;;;5.80;99.90;;;;;;5006020;28;20218;-71
2021/12/26 08:14:11;;;;;;;22.40;11.75;;;5.80;99.90;;;;;;5011678;28;21278;-71
2021/12/26 08:16:36;;;;;;;30.48;13.65;;;5.80;99.90;;;;;;5005191;28;20140;-72
2021/12/26 08:19:03;;;;;;;21.95;12.88;;;5.80;99.90;;;;;;5010877;28;20025;-72
2021/12/26 08:21:29;;;;;;;22.63;11.93;;;5.90;99.90;;;;;;5003785;28;20474;-70
2021/12/26 08:23:55;;;;;;;23.73;12.20;;;5.90;99.90;;;;;;5005757;28;20056;-72
2021/12/26 08:26:21;;;;;;;21.48;11.88;;;5.90;99.90;;;;;;4994419;28;20490;-72
2021/12/26 08:28:46;;;;;;;20.67;11.27;;;6.00;99.90;;;;;;5009221;28;20057;-71
2021/12/26 08:31:15;;;;;;;21.67;11.90;;;6.00;99.90;;;;;;4989492;28;20037;-71
2021/12/26 08:33:41;;;;;;;21.33;11.93;;;5.90;99.90;;;;;;4986753;28;20034;-71
2021/12/26 08:36:07;;;;;;;23.27;12.93;;;5.90;99.90;;;;;;4991754;28;20056;-72
2021/12/26 08:38:33;;;;;;;28.13;13.88;;;6.00;99.90;;;;;;5007712;28;20157;-71
2021/12/26 08:40:58;;;;;;;24.95;13.25;;;6.00;99.90;;;;;;5007083;28;20022;-71
2021/12/26 08:43:25;;;;;;;24.73;13.27;;;6.00;99.90;;;;;;4992317;28;20471;-72
2021/12/26 08:45:50;;;;;;;26.80;13.57;;;6.00;99.90;;;;;;5005975;28;20029;-70
2021/12/26 08:48:17;;;;;;;26.33;13.85;;;6.00;99.90;;;;;;5003391;28;20030;-73
2021/12/26 08:50:44;;;;;;;29.88;14.98;;;6.10;99.90;;;;;;5004219;28;20030;-72
2021/12/26 08:53:10;;;;;;;24.33;12.30;;;6.00;99.90;;;;;;4990264;28;20026;-71
2021/12/26 08:55:36;;;;;;;24.35;13.38;;;6.00;99.90;;;;;;5004809;28;20033;-72
2021/12/26 08:58:05;;;;;;;26.92;14.25;;;6.10;99.90;;;;;;5013242;28;20133;-71
2021/12/26 09:00:33;;;;;;;23.92;13.25;;;6.10;99.90;;;;;;5013999;28;20498;-71
2021/12/26 09:02:59;;;;;;;22.15;13.07;;;6.10;99.90;;;;;;5009239;28;20026;-71
2021/12/26 09:05:25;;;;;;;24.52;13.32;;;6.10;99.90;;;;;;5012626;28;20100;-71
2021/12/26 09:07:52;;;;;;;25.13;12.68;;;6.20;99.90;;;;;;4997301;28;20026;-71
2021/12/26 09:10:18;;;;;;;27.25;13.02;;;6.20;99.90;;;;;;4995104;28;20045;-71
2021/12/26 09:12:44;;;;;;;24.23;13.23;;;6.20;99.90;;;;;;5010127;28;20043;-71
2021/12/26 09:15:12;;;;;;;22.58;12.07;;;6.20;99.90;;;;;;5011778;28;20022;-72
2021/12/26 09:17:38;;;;;;;20.63;12.38;;;6.30;99.90;;;;;;5006161;28;20038;-71
2021/12/26 09:20:06;;;;;;;22.27;11.20;;;6.30;99.90;;;;;;5006855;28;20030;-71
2021/12/26 09:22:32;;;;;;;21.55;11.57;;;6.40;99.90;;;;;;5009011;28;20034;-71
2021/12/26 09:24:58;;;;;;;21.58;12.13;;;6.40;99.90;;;;;;5010187;28;20025;-71
2021/12/26 09:27:24;;;;;;;20.25;11.25;;;6.40;99.90;;;;;;5012533;28;20291;-71
2021/12/26 09:29:49;;;;;;;23.08;12.15;;;6.40;99.90;;;;;;5007241;28;20058;-70
2021/12/26 09:32:15;;;;;;;22.45;11.85;;;6.40;99.90;;;;;;4995198;28;20030;-71
2021/12/26 09:34:41;;;;;;;21.33;11.95;;;6.50;99.90;;;;;;5014179;28;20124;-71
2021/12/26 09:37:09;;;;;;;21.13;11.60;;;6.50;99.90;;;;;;5014001;28;20129;-71
2021/12/26 09:39:36;;;;;;;21.17;11.20;;;6.50;99.90;;;;;;4985801;28;20169;-70
2021/12/26 09:42:03;;;;;;;18.85;11.63;;;6.50;99.90;;;;;;5015844;28;20079;-71
2021/12/26 09:44:28;;;;;;;21.08;12.65;;;6.50;99.90;;;;;;5010661;28;20021;-71
2021/12/26 09:46:54;;;;;;;24.25;13.13;;;6.50;99.90;;;;;;5013624;28;20493;-71
2021/12/26 09:49:21;;;;;;;22.38;12.10;;;6.40;99.90;;;;;;5008334;28;20030;-71
2021/12/26 09:51:49;;;;;;;24.88;13.43;;;6.50;99.90;;;;;;5010240;28;20030;-71
2021/12/26 09:54:17;;;;;;;25.05;13.90;;;6.40;99.90;;;;;;5015754;28;20030;-71
2021/12/26 09:56:42;;;;;;;22.08;12.55;;;6.50;99.90;;;;;;4996942;28;20378;-71
2021/12/26 09:59:21;;;;;;;20.95;12.02;;;6.60;99.90;;;;;;5011930;28;20034;-71
2021/12/26 10:01:52;;;;;;;21.98;11.98;;;6.70;99.90;;;;;;5008206;28;20396;-71
2021/12/26 10:04:32;;;;;;;20.88;11.95;;;6.80;99.90;;;;;;4989519;28;20036;-71
2021/12/26 10:06:58;;;;;;;19.17;11.30;;;6.90;99.90;;;;;;5014521;28;20485;-71
2021/12/26 10:09:24;;;;;;;19.85;11.80;;;7.00;99.90;;;;;;5016885;28;20029;-71
2021/12/26 10:11:56;;;;;;;23.23;14.35;;;7.00;99.90;;;;;;5014487;28;20030;-71
2021/12/26 10:14:24;;;;;;;18.25;10.80;;;7.10;99.90;;;;;;5014770;28;20032;-71
2021/12/26 10:17:12;;;;;;;19.48;11.32;;;7.20;99.90;;;;;;5008681;28;20037;-71
2021/12/26 10:19:39;;;;;;;18.15;10.73;;;7.30;99.90;;;;;;4991125;28;20030;-71
2021/12/26 10:22:06;;;;;;;18.42;10.82;;;7.30;99.90;;;;;;5008718;28;20026;-71
2021/12/26 10:24:34;;;;;;;19.92;11.88;;;7.30;99.90;;;;;;5007734;28;20030;-71
2021/12/26 10:27:10;;;;;;;26.40;14.15;;;7.40;99.90;;;;;;4991799;28;20038;-71
2021/12/26 10:29:45;;;;;;;24.48;13.40;;;7.50;99.90;;;;;;5010747;28;20034;-71
2021/12/26 10:32:12;;;;;;;19.55;11.07;;;7.50;99.90;;;;;;5008783;28;20497;-71
2021/12/26 10:34:50;;;;;;;17.75;10.70;;;7.60;99.90;;;;;;5012098;28;20479;-70
2021/12/26 10:37:21;;;;;;;18.52;11.23;;;7.60;99.90;;;;;;5010171;28;20029;-71
2021/12/26 10:39:49;;;;;;;21.83;11.73;;;7.60;99.90;;;;;;5007404;28;20034;-71
2021/12/26 10:42:25;;;;;;;19.83;11.30;;;7.60;99.90;;;;;;5009463;28;20029;-71
2021/12/26 10:44:55;;;;;;;22.38;12.32;;;7.60;99.90;;;;;;5012089;28;20164;-70
2021/12/26 10:47:43;;;;;;;20.63;11.38;;;7.60;99.90;;;;;;5011115;28;20107;-71
2021/12/26 10:50:19;;;;;;;21.75;13.07;;;7.70;99.90;;;;;;5011953;28;20037;-71
2021/12/26 10:52:57;;;;;;;19.73;12.27;;;7.80;99.90;;;;;;4996982;28;20025;-71
2021/12/26 10:55:36;;;;;;;19.17;11.10;;;7.80;99.90;;;;;;5004325;28;20030;-71
2021/12/26 10:58:14;;;;;;;17.25;10.70;;;7.90;99.90;;;;;;5011241;28;20486;-71
2021/12/26 11:00:41;;;;;;;42.63;28.20;;;7.90;99.90;;;;;;5009143;28;20030;-71
2021/12/26 11:03:17;;;;;;;28.55;18.23;;;7.80;99.90;;;;;;5016155;28;20026;-72
2021/12/26 11:05:45;;;;;;;22.83;14.77;;;7.90;99.90;;;;;;5012807;28;20025;-71
2021/12/26 11:08:35;;;;;;;22.08;12.50;;;8.00;99.90;;;;;;5010710;28;20017;-72
2021/12/26 11:11:18;;;;;;;21.92;12.65;;;8.10;99.90;;;;;;5010408;28;20112;-72
2021/12/26 11:13:44;;;;;;;19.33;12.48;;;8.20;99.90;;;;;;5009437;28;20030;-71
2021/12/26 11:16:13;;;;;;;21.00;13.00;;;8.30;99.90;;;;;;4986009;28;20109;-71
2021/12/26 11:18:38;;;;;;;20.58;13.57;;;8.40;99.90;;;;;;4984692;28;20112;-71
2021/12/26 11:21:11;;;;;;;19.58;12.95;;;8.50;99.90;;;;;;5006962;28;20133;-72
2021/12/26 11:23:39;;;;;;;20.43;12.27;;;8.50;99.90;;;;;;4989829;28;20056;-72
2021/12/26 11:26:09;;;;;;;22.20;13.02;;;8.50;99.90;;;;;;4994861;28;20030;-72
2021/12/26 11:28:42;;;;;;;19.75;12.48;;;8.50;99.90;;;;;;5007131;28;20037;-72
2021/12/26 11:31:15;;;;;;;22.07;13.27;;;8.50;99.90;;;;;;5005487;28;20026;-73
2021/12/26 11:33:41;;;;;;;21.75;13.75;;;8.50;99.90;;;;;;4988501;28;20113;-71
2021/12/26 11:36:10;;;;;;;21.00;13.38;;;8.50;99.90;;;;;;5005926;28;20022;-71
2021/12/26 11:38:36;;;;;;;22.20;12.85;;;8.50;99.90;;;;;;5008555;28;20087;-72
2021/12/26 11:41:06;;;;;;;19.55;11.95;;;8.50;99.90;;;;;;5012367;28;20026;-72
2021/12/26 11:43:56;;;;;;;17.52;11.88;;;8.60;99.90;;;;;;5011372;28;20549;-72
2021/12/26 11:46:36;;;;;;;21.48;11.80;;;8.70;99.90;;;;;;5013989;28;20034;-71
2021/12/26 11:49:29;;;;;;;19.90;12.25;;;8.80;99.90;;;;;;4991709;28;20480;-72
2021/12/26 11:52:02;;;;;;;16.67;11.45;;;8.70;99.90;;;;;;5009662;28;20551;-72
2021/12/26 11:54:43;;;;;;;18.15;11.20;;;8.60;99.90;;;;;;4990699;28;20038;-71
2021/12/26 11:57:53;;;;;;;17.30;10.18;;;8.60;99.90;;;;;;5006009;28;20391;-72
2021/12/26 12:00:41;;;;;;;15.48;10.07;;;8.50;99.90;;;;;;4968977;28;20038;-71
2021/12/26 12:03:27;;;;;;;19.27;11.35;;;8.50;99.90;;;;;;5011035;28;20021;-72
2021/12/26 12:05:54;;;;;;;17.88;10.07;;;8.50;99.90;;;;;;5013167;28;20478;-73
2021/12/26 12:08:30;;;;;;;17.50;10.55;;;8.50;99.90;;;;;;5001510;28;20029;-72
2021/12/26 12:11:03;;;;;;;18.85;11.52;;;8.40;99.90;;;;;;5007677;28;20037;-72
2021/12/26 12:13:53;;;;;;;16.17;10.30;;;8.40;99.90;;;;;;5004850;28;20101;-72
2021/12/26 12:16:24;;;;;;;18.88;11.10;;;8.40;99.90;;;;;;5002058;28;20371;-72
2021/12/26 12:18:50;;;;;;;18.42;9.63;;;8.30;99.90;;;;;;4989633;28;20054;-73
2021/12/26 12:21:16;;;;;;;14.63;9.15;;;8.20;99.90;;;;;;5013383;28;20475;-72
2021/12/26 12:24:07;;;;;;;18.40;11.25;;;8.20;99.90;;;;;;4999906;28;20033;-71
2021/12/26 12:26:42;;;;;;;17.60;10.82;;;8.30;99.90;;;;;;5003529;28;20033;-72
2021/12/26 12:29:09;;;;;;;16.90;9.25;;;8.30;99.90;;;;;;4998449;28;20926;-72
2021/12/26 12:31:35;;;;;;;19.95;10.95;;;8.30;99.90;;;;;;5004946;28;20030;-71
2021/12/26 12:34:07;;;;;;;14.73;9.02;;;8.30;99.90;;;;;;5003800;28;20033;-72
2021/12/26 12:36:36;;;;;;;13.15;8.40;;;8.40;99.90;;;;;;4986364;28;20415;-71
2021/12/26 12:39:13;;;;;;;15.60;9.40;;;8.40;99.90;;;;;;5016909;28;20619;-71
2021/12/26 12:41:43;;;;;;;17.20;9.73;;;8.50;99.90;;;;;;5008673;28;20057;-71
2021/12/26 12:44:34;;;;;;;17.15;9.93;;;8.50;99.90;;;;;;5014026;28;20159;-71
2021/12/26 12:47:02;;;;;;;15.50;10.18;;;8.60;99.90;;;;;;5002910;28;20022;-71
2021/12/26 12:49:51;;;;;;;22.50;11.30;;;8.60;99.90;;;;;;5013415;28;20390;-72
2021/12/26 12:52:45;;;;;;;18.55;11.65;;;8.70;99.90;;;;;;5016887;28;20030;-71